Schneifelwetter: Wetterstation Hallschlag, 537 m . NN
Wetterdaten: Freitag, 19.08.2011
Datum Zeit Temp. A. Feuchte A. Luftdruck Regen Wind Richtung Richtung Sonnenschein Helligkeit T Regen Taupunkt Windchill
19.08.2011 00:00 18,2 C 86 % 1012 hPa 0,0 l/m 0,0 km/h (0 Bft) W 260 0 min 0 lux 0 min 15,8 C 18,2 C
19.08.2011 00:15 18,3 C 87 % 1012 hPa 0,0 l/m 0,1 km/h (0 Bft) W 260 0 min 0 lux 0 min 16,1 C 18,3 C
19.08.2011 00:30 18,1 C 87 % 1012 hPa 0,0 l/m 0,0 km/h (0 Bft) W 260 0 min 0 lux 0 min 15,9 C 18,1 C
19.08.2011 00:45 18,0 C 88 % 1012 hPa 0,0 l/m 0,0 km/h (0 Bft) W 260 0 min 0 lux 0 min 16,0 C 18,0 C
19.08.2011 01:00 17,7 C 88 % 1012 hPa 0,0 l/m 3,9 km/h (1 Bft) W 260 0 min 0 lux 0 min 15,7 C 17,7 C
19.08.2011 01:15 17,8 C 90 % 1012 hPa 0,0 l/m 9,1 km/h (2 Bft) S 180 0 min 0 lux 0 min 16,1 C 16,6 C
19.08.2011 01:30 18,0 C 91 % 1012 hPa 0,0 l/m 16,5 km/h (3 Bft) SW22.5 215 0 min 0 lux 0 min 16,5 C 14,4 C
19.08.2011 01:45 18,4 C 92 % 1012 hPa 0,0 l/m 23,1 km/h (4 Bft) W-SW45 240 0 min 0 lux 0 min 17,1 C 13,5 C
19.08.2011 02:00 18,6 C 92 % 1012 hPa 0,0 l/m 22,8 km/h (4 Bft) W-SW67.5 245 0 min 0 lux 0 min 17,3 C 13,9 C
19.08.2011 02:15 18,6 C 91 % 1012 hPa 0,3 l/m 18,7 km/h (3 Bft) SW45 230 0 min 0 lux 15 min 17,1 C 14,7 C
19.08.2011 02:30 18,4 C 91 % 1012 hPa 0,0 l/m 24,0 km/h (4 Bft) W-SW45 250 0 min 0 lux 0 min 16,9 C 13,4 C
19.08.2011 02:45 18,3 C 91 % 1012 hPa 0,0 l/m 20,2 km/h (4 Bft) W-SW22.5 245 0 min 0 lux 0 min 16,8 C 14,0 C
19.08.2011 03:00 18,2 C 91 % 1012 hPa 0,0 l/m 28,4 km/h (4 Bft) W-SW45 255 0 min 0 lux 0 min 16,7 C 12,4 C
19.08.2011 03:15 18,2 C 91 % 1012 hPa 0,0 l/m 21,1 km/h (4 Bft) W-SW22.5 250 0 min 0 lux 0 min 16,7 C 13,7 C
19.08.2011 03:30 18,2 C 91 % 1012 hPa 0,0 l/m 22,3 km/h (4 Bft) W-SW22.5 255 0 min 0 lux 0 min 16,7 C 13,4 C
19.08.2011 03:45 18,1 C 91 % 1012 hPa 0,0 l/m 27,6 km/h (4 Bft) W-SW67.5 255 0 min 0 lux 0 min 16,6 C 12,4 C
19.08.2011 04:00 18,0 C 91 % 1012 hPa 0,0 l/m 23,1 km/h (4 Bft) W-SW67.5 255 0 min 0 lux 0 min 16,5 C 13,0 C
19.08.2011 04:16 18,0 C 91 % 1012 hPa 0,0 l/m 23,8 km/h (4 Bft) W-SW22.5 245 0 min 0 lux 0 min 16,5 C 12,9 C
19.08.2011 04:31 18,0 C 91 % 1012 hPa 0,0 l/m 18,5 km/h (3 Bft) W22.5 260 0 min 0 lux 0 min 16,5 C 14,0 C
19.08.2011 04:46 18,0 C 91 % 1012 hPa 0,0 l/m 19,0 km/h (3 Bft) W-SW45 245 0 min 0 lux 0 min 16,5 C 13,8 C
19.08.2011 05:01 18,0 C 91 % 1012 hPa 0,0 l/m 21,6 km/h (4 Bft) W-SW22.5 250 0 min 0 lux 0 min 16,5 C 13,3 C
19.08.2011 05:16 18,0 C 91 % 1012 hPa 0,0 l/m 17,4 km/h (3 Bft) W22.5 260 0 min 0 lux 0 min 16,5 C 14,2 C
19.08.2011 05:31 17,9 C 92 % 1012 hPa 0,0 l/m 18,6 km/h (3 Bft) W-SW45 250 0 min 0 lux 0 min 16,6 C 13,8 C
19.08.2011 05:46 17,9 C 92 % 1012 hPa 0,0 l/m 28,1 km/h (4 Bft) W-SW45 255 0 min 0 lux 0 min 16,6 C 12,0 C
19.08.2011 06:01 17,9 C 92 % 1012 hPa 0,0 l/m 25,7 km/h (4 Bft) W-SW67.5 255 0 min 0 lux 0 min 16,6 C 12,4 C
19.08.2011 06:16 17,8 C 92 % 1012 hPa 0,0 l/m 25,1 km/h (4 Bft) W-SW45 240 0 min 49 lux 0 min 16,5 C 12,4 C
19.08.2011 06:31 17,7 C 92 % 1012 hPa 0,0 l/m 24,9 km/h (4 Bft) W45 260 0 min 208 lux 0 min 16,4 C 12,3 C
19.08.2011 06:46 17,8 C 93 % 1013 hPa 0,0 l/m 19,2 km/h (3 Bft) W-SW22.5 255 0 min 365 lux 0 min 16,7 C 13,5 C
19.08.2011 07:01 17,7 C 92 % 1013 hPa 0,0 l/m 20,7 km/h (4 Bft) W-SW45 240 0 min 545 lux 0 min 16,4 C 13,1 C
19.08.2011 07:16 17,7 C 92 % 1013 hPa 0,0 l/m 25,2 km/h (4 Bft) SW67.5 225 0 min 1,54 klux 0 min 16,4 C 12,2 C
19.08.2011 07:30 17,8 C 92 % 1013 hPa 0,0 l/m 24,5 km/h (4 Bft) SW45 230 0 min 2,94 klux 0 min 16,5 C 12,5 C
19.08.2011 07:45 17,8 C 92 % 1013 hPa 0,0 l/m 20,1 km/h (4 Bft) SW45 230 0 min 2,32 klux 0 min 16,5 C 13,3 C
19.08.2011 08:00 17,6 C 90 % 1013 hPa 0,0 l/m 25,3 km/h (4 Bft) W45 275 0 min 1,86 klux 0 min 15,9 C 12,1 C
19.08.2011 08:15 16,8 C 91 % 1013 hPa 2,1 l/m 22,1 km/h (4 Bft) W45 275 0 min 4,38 klux 15 min 15,3 C 11,6 C
19.08.2011 08:30 16,5 C 92 % 1014 hPa 0,0 l/m 26,1 km/h (4 Bft) W22.5 275 0 min 7,44 klux 0 min 15,2 C 10,4 C
19.08.2011 08:46 16,3 C 93 % 1014 hPa 0,6 l/m 24,0 km/h (4 Bft) W22.5 265 0 min 11,8 klux 16 min 15,2 C 10,6 C
19.08.2011 09:00 16,3 C 93 % 1014 hPa 0,0 l/m 29,2 km/h (5 Bft) W45 270 0 min 12,5 klux 0 min 15,2 C 9,6 C
19.08.2011 09:15 16,0 C 93 % 1014 hPa 0,0 l/m 25,8 km/h (4 Bft) W45 265 0 min 6,02 klux 0 min 14,9 C 9,8 C
19.08.2011 09:30 16,0 C 93 % 1014 hPa 0,0 l/m 29,3 km/h (5 Bft) W22.5 265 0 min 8,45 klux 0 min 14,9 C 9,2 C
19.08.2011 09:45 16,0 C 93 % 1015 hPa 0,0 l/m 23,2 km/h (4 Bft) W-NW22.5 285 0 min 4,58 klux 0 min 14,9 C 10,3 C
19.08.2011 10:00 15,4 C 93 % 1015 hPa 0,0 l/m 23,1 km/h (4 Bft) W45 265 0 min 4,31 klux 0 min 14,3 C 9,5 C
19.08.2011 10:16 15,4 C 93 % 1015 hPa 0,3 l/m 18,8 km/h (3 Bft) W22.5 265 0 min 7,32 klux 16 min 14,3 C 10,6 C
19.08.2011 10:30 15,4 C 93 % 1015 hPa 0,0 l/m 18,3 km/h (3 Bft) W22.5 275 0 min 7,19 klux 0 min 14,3 C 10,7 C
19.08.2011 10:45 16,0 C 93 % 1015 hPa 0,0 l/m 14,5 km/h (3 Bft) W45 270 0 min 25,3 klux 0 min 14,9 C 12,6 C
19.08.2011 11:00 16,4 C 91 % 1016 hPa 0,0 l/m 13,6 km/h (3 Bft) W-NW22.5 285 0 min 18,9 klux 0 min 14,9 C 13,3 C
19.08.2011 11:15 16,4 C 89 % 1016 hPa 0,0 l/m 16,4 km/h (3 Bft) W45 265 0 min 17,0 klux 0 min 14,6 C 12,5 C
19.08.2011 11:31 16,1 C 88 % 1016 hPa 0,0 l/m 15,5 km/h (3 Bft) W22.5 265 0 min 11,9 klux 0 min 14,1 C 12,4 C
19.08.2011 11:45 16,1 C 89 % 1016 hPa 0,0 l/m 14,9 km/h (3 Bft) W22.5 280 0 min 25,7 klux 0 min 14,3 C 12,6 C
19.08.2011 12:00 16,1 C 87 % 1017 hPa 0,0 l/m 15,8 km/h (3 Bft) W-NW45 285 0 min 17,8 klux 0 min 13,9 C 12,3 C
19.08.2011 12:15 15,8 C 88 % 1017 hPa 0,0 l/m 17,8 km/h (3 Bft) W22.5 270 0 min 14,4 klux 0 min 13,8 C 11,3 C
19.08.2011 12:30 16,5 C 88 % 1017 hPa 0,0 l/m 17,0 km/h (3 Bft) W22.5 270 0 min 49,9 klux 0 min 14,5 C 12,4 C
19.08.2011 12:45 17,4 C 83 % 1017 hPa 0,0 l/m 18,0 km/h (3 Bft) W22.5 270 15 min 71,9 klux 0 min 14,5 C 13,3 C
19.08.2011 13:01 16,9 C 83 % 1017 hPa 0,0 l/m 17,6 km/h (3 Bft) W-NW45 295 0 min 56,3 klux 0 min 14,0 C 12,8 C
19.08.2011 13:15 17,1 C 83 % 1017 hPa 0,0 l/m 17,0 km/h (3 Bft) W22.5 275 0 min 23,4 klux 0 min 14,2 C 13,2 C
19.08.2011 13:30 17,1 C 83 % 1018 hPa 0,0 l/m 18,3 km/h (3 Bft) W22.5 270 0 min 39,8 klux 0 min 14,2 C 12,9 C
19.08.2011 13:45 17,5 C 82 % 1018 hPa 0,0 l/m 19,3 km/h (3 Bft) W22.5 270 0 min 45,3 klux 0 min 14,4 C 13,1 C
19.08.2011 14:00 17,2 C 80 % 1018 hPa 0,0 l/m 23,8 km/h (4 Bft) W45 270 0 min 42,4 klux 0 min 13,7 C 11,8 C
19.08.2011 14:15 17,2 C 80 % 1018 hPa 0,0 l/m 24,5 km/h (4 Bft) W45 275 15 min 82,4 klux 0 min 13,7 C 11,7 C
19.08.2011 14:31 16,9 C 79 % 1019 hPa 0,0 l/m 21,7 km/h (4 Bft) W45 280 0 min 41,0 klux 0 min 13,2 C 11,8 C
19.08.2011 14:45 16,5 C 81 % 1019 hPa 0,0 l/m 24,8 km/h (4 Bft) W45 275 0 min 54,2 klux 0 min 13,2 C 10,7 C
19.08.2011 15:00 16,8 C 80 % 1019 hPa 0,0 l/m 25,8 km/h (4 Bft) W22.5 270 0 min 56,9 klux 0 min 13,3 C 10,9 C
19.08.2011 15:15 17,6 C 77 % 1019 hPa 0,0 l/m 20,1 km/h (4 Bft) W45 270 0 min 55,5 klux 0 min 13,5 C 13,1 C
19.08.2011 15:30 18,0 C 74 % 1019 hPa 0,0 l/m 22,4 km/h (4 Bft) W22.5 270 15 min 82,2 klux 0 min 13,3 C 13,1 C
19.08.2011 15:45 17,6 C 74 % 1019 hPa 0,0 l/m 23,0 km/h (4 Bft) W22.5 270 0 min 36,4 klux 0 min 12,9 C 12,5 C
19.08.2011 16:01 18,0 C 76 % 1019 hPa 0,0 l/m 17,9 km/h (3 Bft) W22.5 265 16 min 81,0 klux 0 min 13,7 C 14,1 C
19.08.2011 16:15 18,4 C 74 % 1019 hPa 0,0 l/m 26,6 km/h (4 Bft) W45 280 14 min 87,4 klux 0 min 13,7 C 13,0 C
19.08.2011 16:30 18,2 C 72 % 1019 hPa 0,0 l/m 16,2 km/h (3 Bft) W22.5 270 15 min 74,0 klux 0 min 13,1 C 14,8 C
19.08.2011 16:45 17,5 C 74 % 1019 hPa 0,0 l/m 18,8 km/h (3 Bft) W45 265 15 min 71,4 klux 0 min 12,8 C 13,2 C
19.08.2011 17:00 17,3 C 74 % 1019 hPa 0,0 l/m 13,7 km/h (3 Bft) W22.5 265 0 min 19,3 klux 0 min 12,6 C 14,4 C
19.08.2011 17:15 17,3 C 75 % 1019 hPa 0,0 l/m 12,4 km/h (3 Bft) W 260 0 min 57,7 klux 0 min 12,8 C 14,8 C
19.08.2011 17:31 17,8 C 72 % 1019 hPa 0,0 l/m 18,1 km/h (3 Bft) W22.5 260 0 min 55,4 klux 0 min 12,7 C 13,8 C
19.08.2011 17:45 17,9 C 72 % 1019 hPa 0,0 l/m 17,6 km/h (3 Bft) W67.5 260 0 min 54,1 klux 0 min 12,8 C 14,0 C
19.08.2011 18:00 17,6 C 71 % 1019 hPa 0,0 l/m 19,8 km/h (3 Bft) W22.5 270 0 min 22,3 klux 0 min 12,3 C 13,1 C
19.08.2011 18:15 17,0 C 72 % 1019 hPa 0,0 l/m 18,1 km/h (3 Bft) W22.5 270 0 min 28,2 klux 0 min 11,9 C 12,8 C
19.08.2011 18:30 16,7 C 73 % 1019 hPa 0,0 l/m 11,0 km/h (2 Bft) W22.5 260 0 min 15,1 klux 0 min 11,8 C 14,6 C
19.08.2011 18:45 16,4 C 74 % 1019 hPa 0,0 l/m 10,5 km/h (2 Bft) W 270 0 min 24,8 klux 0 min 11,8 C 14,5 C
19.08.2011 19:01 16,7 C 74 % 1019 hPa 0,0 l/m 12,6 km/h (3 Bft) W 265 0 min 33,1 klux 0 min 12,0 C 14,0 C
19.08.2011 19:15 16,5 C 74 % 1020 hPa 0,0 l/m 13,4 km/h (3 Bft) W 265 0 min 22,7 klux 0 min 11,8 C 13,5 C
19.08.2011 19:30 16,7 C 74 % 1020 hPa 0,0 l/m 9,0 km/h (2 Bft) W 265 0 min 23,8 klux 0 min 12,0 C 15,4 C
19.08.2011 19:45 16,7 C 73 % 1019 hPa 0,0 l/m 0,9 km/h (0 Bft) W 265 0 min 21,1 klux 0 min 11,8 C 16,7 C
19.08.2011 20:00 16,4 C 73 % 1019 hPa 0,0 l/m 8,9 km/h (2 Bft) W 265 0 min 13,8 klux 0 min 11,5 C 15,1 C
19.08.2011 20:15 15,6 C 74 % 1020 hPa 0,0 l/m 0,3 km/h (0 Bft) W 265 0 min 9,8 klux 0 min 11,0 C 15,6 C
19.08.2011 20:31 14,8 C 76 % 1020 hPa 0,0 l/m 0,0 km/h (0 Bft) W 265 0 min 3,85 klux 0 min 10,6 C 14,8 C
19.08.2011 20:45 13,8 C 77 % 1020 hPa 0,0 l/m 0,0 km/h (0 Bft) W 265 0 min 1,51 klux 0 min 9,8 C 13,8 C
19.08.2011 21:00 12,9 C 80 % 1020 hPa 0,0 l/m 0,0 km/h (0 Bft) W 265 0 min 474 lux 0 min 9,5 C 12,9 C
19.08.2011 21:15 12,3 C 80 % 1020 hPa 0,0 l/m 0,0 km/h (0 Bft) W 265 0 min 134 lux 0 min 8,9 C 12,3 C
19.08.2011 21:30 11,6 C 82 % 1020 hPa 0,0 l/m 0,0 km/h (0 Bft) W 265 0 min 9 lux 0 min 8,6 C 11,6 C
19.08.2011 21:45 11,1 C 83 % 1020 hPa 0,0 l/m 0,0 km/h (0 Bft) W 265 0 min 0 lux 0 min 8,3 C 11,1 C
19.08.2011 22:01 10,8 C 85 % 1020 hPa 0,0 l/m 0,0 km/h (0 Bft) W 265 0 min 0 lux 0 min 8,4 C 10,8 C
19.08.2011 22:15 10,4 C 85 % 1020 hPa 0,0 l/m 0,0 km/h (0 Bft) W 265 0 min 0 lux 0 min 8,0 C 10,4 C
19.08.2011 22:30 10,0 C 86 % 1020 hPa 0,0 l/m 0,0 km/h (0 Bft) W 265 0 min 0 lux 0 min 7,8 C 10,0 C
19.08.2011 22:45 9,7 C 86 % 1020 hPa 0,0 l/m 0,0 km/h (0 Bft) W 265 0 min 0 lux 0 min 7,5 C 9,7 C
19.08.2011 23:00 9,4 C 87 % 1020 hPa 0,0 l/m 0,0 km/h (0 Bft) W 265 0 min 0 lux 0 min 7,3 C 9,4 C
19.08.2011 23:15 9,1 C 88 % 1020 hPa 0,0 l/m 0,0 km/h (0 Bft) W 265 0 min 0 lux 0 min 7,2 C 9,1 C
19.08.2011 23:31 9,0 C 89 % 1020 hPa 0,0 l/m 0,0 km/h (0 Bft) W 265 0 min 0 lux 0 min 7,3 C 9,0 C
19.08.2011 23:45 8,9 C 90 % 1020 hPa 0,0 l/m 0,0 km/h (0 Bft) W 265 0 min 0 lux 0 min 7,4 C 8,9 C
19.08.2011 23:54 8,8 C 90 % 1020 hPa 0,0 l/m 0,0 km/h (0 Bft) W 265 0 min 0 lux 0 min 7,3 C 8,8 C
_ Min-Zeit 23:54 18:00 00:00 - 00:00 - - - - - 23:15 23:54
Minimum _ 8,8 C 71 % 1012 hPa - 0,0 km/h (0 Bft) - - - - - 7,2 C 8,8 C
_ Max-Zeit 02:00 06:46 19:15 08:15 09:30 - - 16:01 16:15 08:46 02:00 00:15
Maximum _ 18,6 C 93 % 1020 hPa 2,1 l/m 29,3 km/h
W (5 Bft)
- - 16 min 87,4 klux 16 min 17,3 C 18,3 C
Durchschnitt _ 16,3 C 85 % 1016 hPa #3,3 l/m 15,6 km/h (3 Bft) W - #1:45 h 17,3 klux #1:02 h 13,8 C 12,9 C